Elkhart Lake, Wisconsin
Current Conditions -  °F | °C
As of 5:53 PM on Wednesday 22 Oct 2014 (Local Time) from KSBM Reporting Station
Clear Clear  
Wind Chill: 42°   Ceiling: Unl
Heat Index: 45°   Visibility: 10mi
Dew Point: 37°   Wind: 6mph
Humidity: 74%   Direction: 150°SSE
Pressure: 30.28"   Gusts: NA
Location:  43.83°N, 88.02°W
Report Text: KSBM 222253Z AUTO 15005KT 10SM CLR 07/03 A3028 RMK AO2 SLP262 T00720028
Loading
Personal Weather Stations






























Interactive Weather Map New forecast layout! Learn more

10-Day Weather Forecast

Advertisements
Track Severe Weather on mobile